Weather at Chalais Airfield

Public forecast

Using degrees Celsius for public forecast. Weather courtesy of forecast.io.

Closest aviation weather report (METAR) to Chalais Airfield

Closest report is Cognac-Ch√Ęteaubernard (BA 709) Air Base, 27.3 nm (50.6 km) NNW. Retrieved 2021/12/03 04:00 UTC (2 minutes ago):

LFBG 030400Z AUTO 00000KT 0300 R23/0375U FZFG VV/// M01/M02 Q1020

Closest aviation forecast (TAF) to Chalais Airfield

Forecast is more than 6 hours old.

Closest forecast is Cognac-Ch√Ęteaubernard (BA 709) Air Base, 27.3 nm (50.6 km) NNW. Retrieved 2021/12/02 20:56 UTC (7 hours ago):

TAF LFBG 022049Z 0220/0321 CNL